createdAt,value
2023-02-06T00:01:25.022Z,99.90
2023-02-06T00:03:51.702Z,99.90
2023-02-06T00:06:18.489Z,99.90
2023-02-06T00:08:45.154Z,99.90
2023-02-06T00:11:14.224Z,99.90
2023-02-06T00:13:40.809Z,94.00
2023-02-06T00:16:19.715Z,96.60
2023-02-06T00:18:46.624Z,94.20
2023-02-06T00:21:14.050Z,99.90
2023-02-06T00:23:40.880Z,93.10
2023-02-06T00:26:07.824Z,83.00
2023-02-06T00:28:34.473Z,74.40
2023-02-06T00:31:01.245Z,68.80
2023-02-06T00:33:27.859Z,51.30
2023-02-06T00:35:54.474Z,58.60
2023-02-06T00:38:21.081Z,53.50
2023-02-06T00:40:47.681Z,57.30
2023-02-06T00:43:14.510Z,52.20
2023-02-06T00:45:41.130Z,57.80
2023-02-06T00:48:09.141Z,34.10
2023-02-06T00:50:36.938Z,21.60
2023-02-06T00:53:03.557Z,33.00
2023-02-06T00:55:30.153Z,31.00
2023-02-06T00:57:56.750Z,29.70
2023-02-06T01:00:23.529Z,35.20
2023-02-06T01:02:50.157Z,32.70
2023-02-06T01:05:16.950Z,37.40
2023-02-06T01:07:43.740Z,34.50
2023-02-06T01:10:11.575Z,40.00
2023-02-06T01:12:39.570Z,41.30
2023-02-06T01:15:08.420Z,35.60
2023-02-06T01:17:38.435Z,34.50
2023-02-06T01:20:07.590Z,24.40
2023-02-06T01:22:37.116Z,20.80
2023-02-06T01:25:05.548Z,23.80
2023-02-06T01:27:34.838Z,26.40
2023-02-06T01:30:01.498Z,24.30
2023-02-06T01:32:28.113Z,22.40
2023-02-06T01:34:54.690Z,27.20
2023-02-06T01:37:21.383Z,30.40
2023-02-06T01:39:48.013Z,29.30
2023-02-06T01:42:14.638Z,31.60
2023-02-06T01:44:42.036Z,30.70
2023-02-06T01:47:10.728Z,26.40
2023-02-06T01:49:46.116Z,27.60
2023-02-06T01:52:23.616Z,26.50
2023-02-06T01:54:57.854Z,27.90
2023-02-06T01:57:25.382Z,22.80
2023-02-06T01:59:57.617Z,23.10
2023-02-06T02:02:27.294Z,21.80
2023-02-06T02:04:55.086Z,16.80
2023-02-06T02:07:24.190Z,15.60
2023-02-06T02:09:52.583Z,9.60
2023-02-06T02:12:19.956Z,5.10
2023-02-06T02:14:49.064Z,9.90
2023-02-06T02:17:37.195Z,3.60
2023-02-06T02:20:25.660Z,9.00
2023-02-06T02:22:58.162Z,8.10
2023-02-06T02:25:55.514Z,8.30
2023-02-06T02:28:34.122Z,11.10
2023-02-06T02:31:55.399Z,4.80
2023-02-06T02:34:47.278Z,13.80
2023-02-06T02:37:43.554Z,23.90
2023-02-06T02:40:29.133Z,7.00
2023-02-06T02:43:05.734Z,2.00
2023-02-06T02:45:48.236Z,1.00
2023-02-06T02:48:20.394Z,2.70
2023-02-06T02:50:47.625Z,1.00
2023-02-06T02:53:14.841Z,8.40
2023-02-06T02:55:42.018Z,1.00
2023-02-06T02:58:13.113Z,1.00
2023-02-06T03:00:49.176Z,1.00
2023-02-06T03:03:22.025Z,1.00
2023-02-06T03:06:12.841Z,15.30
2023-02-06T03:08:56.089Z,1.00
2023-02-06T03:11:23.607Z,1.00
2023-02-06T03:14:00.546Z,1.00
2023-02-06T03:16:38.150Z,1.00
2023-02-06T03:19:16.530Z,1.00
2023-02-06T03:21:45.158Z,1.00
2023-02-06T03:24:19.461Z,1.00
2023-02-06T03:26:50.690Z,2.30
2023-02-06T03:29:18.750Z,5.10
2023-02-06T03:31:52.265Z,4.60
2023-02-06T03:34:44.484Z,9.60
2023-02-06T03:37:12.370Z,8.00
2023-02-06T03:39:39.937Z,13.10
2023-02-06T03:42:08.710Z,21.80
2023-02-06T03:44:39.257Z,14.60
2023-02-06T03:47:08.000Z,9.10
2023-02-06T03:49:37.701Z,3.20
2023-02-06T03:52:04.358Z,3.10
2023-02-06T03:54:32.230Z,1.00
2023-02-06T03:57:02.662Z,1.00
2023-02-06T03:59:30.117Z,1.00
2023-02-06T04:02:03.044Z,1.00
2023-02-06T04:04:34.344Z,1.00
2023-02-06T04:07:07.207Z,1.00
2023-02-06T04:09:33.850Z,10.30
2023-02-06T04:12:00.478Z,12.60
2023-02-06T04:14:27.104Z,22.10
2023-02-06T04:16:53.743Z,17.10
2023-02-06T04:19:20.336Z,14.00
2023-02-06T04:21:46.998Z,8.90
2023-02-06T04:24:13.586Z,14.40
2023-02-06T04:26:40.203Z,21.20
2023-02-06T04:29:06.870Z,19.30
2023-02-06T04:31:33.863Z,13.60
2023-02-06T04:34:00.453Z,12.00
2023-02-06T04:36:27.084Z,12.50
2023-02-06T04:38:53.689Z,9.10
2023-02-06T04:41:20.393Z,9.70
2023-02-06T04:43:46.975Z,12.00
2023-02-06T04:46:13.672Z,11.60
2023-02-06T04:48:40.411Z,13.80
2023-02-06T04:51:07.058Z,7.90
2023-02-06T04:53:33.938Z,12.00
2023-02-06T04:56:05.594Z,16.90
2023-02-06T04:58:32.650Z,12.90
2023-02-06T05:00:59.405Z,27.10
2023-02-06T05:03:26.166Z,25.60
2023-02-06T05:05:53.047Z,27.40
2023-02-06T05:08:19.703Z,20.90
2023-02-06T05:10:46.349Z,24.20
2023-02-06T05:13:13.076Z,26.60
2023-02-06T05:15:40.126Z,19.60
2023-02-06T05:18:07.073Z,19.40
2023-02-06T05:20:33.673Z,16.70
2023-02-06T05:23:00.269Z,11.50
2023-02-06T05:25:26.915Z,16.50
2023-02-06T05:27:53.639Z,20.00
2023-02-06T05:30:20.343Z,39.60
2023-02-06T05:32:46.920Z,20.30
2023-02-06T05:35:13.514Z,25.60
2023-02-06T05:37:40.200Z,19.00
2023-02-06T05:40:08.425Z,14.90
2023-02-06T05:42:35.105Z,21.70
2023-02-06T05:45:01.860Z,17.10
2023-02-06T05:47:28.600Z,22.90
2023-02-06T05:49:55.214Z,17.60
2023-02-06T05:52:21.880Z,12.60
2023-02-06T05:54:48.531Z,5.60
2023-02-06T05:57:15.125Z,14.40
2023-02-06T05:59:41.718Z,14.10
2023-02-06T06:02:08.793Z,15.10
2023-02-06T06:04:35.393Z,18.20
2023-02-06T06:07:02.118Z,20.20
2023-02-06T06:09:28.741Z,24.10
2023-02-06T06:11:55.410Z,16.80
2023-02-06T06:14:22.042Z,20.00
2023-02-06T06:16:48.869Z,43.20
2023-02-06T06:19:15.537Z,23.10
2023-02-06T06:21:42.166Z,25.40
2023-02-06T06:24:08.859Z,23.30
2023-02-06T06:26:35.756Z,30.70
2023-02-06T06:29:02.552Z,37.80
2023-02-06T06:31:29.246Z,48.30
2023-02-06T06:33:55.949Z,49.60
2023-02-06T06:36:22.751Z,47.00
2023-02-06T06:38:49.373Z,51.10
2023-02-06T06:41:15.995Z,59.80
2023-02-06T06:43:43.250Z,60.60
2023-02-06T06:46:10.077Z,59.50
2023-02-06T06:48:38.150Z,66.80
2023-02-06T06:51:05.510Z,67.70
2023-02-06T06:53:32.252Z,74.70
2023-02-06T06:56:03.955Z,87.30
2023-02-06T06:58:30.627Z,85.70
2023-02-06T07:00:57.354Z,82.00
2023-02-06T07:03:24.141Z,90.90
2023-02-06T07:05:53.158Z,83.40
2023-02-06T07:08:19.903Z,85.50
2023-02-06T07:10:47.698Z,92.10
2023-02-06T07:13:15.569Z,97.80
2023-02-06T07:15:42.950Z,99.90
2023-02-06T07:18:11.643Z,99.90
2023-02-06T07:20:38.582Z,97.90
2023-02-06T07:23:06.052Z,99.90
2023-02-06T07:25:32.946Z,99.90
2023-02-06T07:27:59.648Z,99.90
2023-02-06T07:30:26.412Z,99.90
2023-02-06T07:32:53.025Z,99.90
2023-02-06T07:35:19.706Z,99.90
2023-02-06T07:37:46.346Z,99.90
2023-02-06T07:40:13.187Z,99.90
2023-02-06T07:42:40.382Z,99.90
2023-02-06T07:45:19.785Z,99.90
2023-02-06T07:47:46.454Z,99.90
2023-02-06T07:50:13.100Z,99.90
2023-02-06T07:52:39.784Z,99.90
2023-02-06T07:55:06.622Z,99.90
2023-02-06T07:57:33.251Z,99.90
2023-02-06T07:59:59.891Z,99.90
2023-02-06T08:02:26.515Z,99.90
2023-02-06T08:04:53.102Z,99.90
2023-02-06T08:07:19.719Z,99.90
2023-02-06T08:09:46.461Z,99.90
2023-02-06T08:12:13.090Z,99.90
2023-02-06T08:14:39.751Z,99.90
2023-02-06T08:17:07.554Z,99.90
2023-02-06T08:19:34.178Z,99.90
2023-02-06T08:22:00.775Z,99.90
2023-02-06T08:24:27.438Z,99.90
2023-02-06T08:26:54.112Z,99.90
2023-02-06T08:29:20.734Z,99.90
2023-02-06T08:31:47.555Z,99.90
2023-02-06T08:34:14.940Z,99.90
2023-02-06T08:36:43.692Z,99.90
2023-02-06T08:39:13.756Z,99.90
2023-02-06T08:41:44.714Z,99.90
2023-02-06T08:44:15.958Z,99.90
2023-02-06T08:46:44.376Z,99.90
2023-02-06T08:49:16.148Z,99.90
2023-02-06T08:51:43.525Z,99.90
2023-02-06T08:54:18.913Z,99.90
2023-02-06T08:56:46.296Z,99.90
2023-02-06T08:59:15.517Z,99.90
2023-02-06T09:01:42.707Z,99.90
2023-02-06T09:04:10.769Z,99.90
2023-02-06T09:06:40.248Z,99.90
2023-02-06T09:09:09.218Z,99.90
2023-02-06T09:11:36.428Z,99.90
2023-02-06T09:14:05.761Z,99.90
2023-02-06T09:16:37.588Z,99.90
2023-02-06T09:19:04.850Z,99.90
2023-02-06T09:21:34.031Z,99.90
2023-02-06T09:24:03.796Z,99.90
2023-02-06T09:26:33.913Z,99.90
2023-02-06T09:29:05.390Z,99.90
2023-02-06T09:31:32.091Z,99.90
2023-02-06T09:34:00.360Z,99.90
2023-02-06T09:36:27.488Z,99.90
2023-02-06T09:38:57.082Z,99.90
2023-02-06T09:41:26.770Z,99.90
2023-02-06T09:44:07.752Z,99.90
2023-02-06T09:46:36.901Z,99.90
2023-02-06T09:49:12.814Z,99.90
2023-02-06T09:51:44.177Z,99.90
2023-02-06T09:54:36.085Z,99.90
2023-02-06T09:57:12.738Z,99.90
2023-02-06T09:59:44.905Z,99.90
2023-02-06T10:02:24.519Z,99.90
2023-02-06T10:05:01.563Z,99.90
2023-02-06T10:07:51.000Z,99.90
2023-02-06T10:10:39.193Z,99.90
2023-02-06T10:13:14.226Z,99.90
2023-02-06T10:15:46.494Z,99.90
2023-02-06T10:18:36.060Z,99.90
2023-02-06T10:21:14.105Z,99.90
2023-02-06T10:24:04.374Z,99.90
2023-02-06T10:26:34.434Z,99.90
2023-02-06T10:29:01.114Z,99.90
2023-02-06T10:31:45.008Z,99.90
2023-02-06T10:34:32.862Z,99.90
2023-02-06T10:37:24.326Z,99.90
2023-02-06T10:40:09.966Z,99.90
2023-02-06T10:42:51.938Z,1.00
2023-02-06T10:45:24.407Z,99.90
2023-02-06T10:47:57.258Z,99.90
2023-02-06T10:50:31.663Z,99.90
2023-02-06T10:53:06.273Z,99.90
2023-02-06T10:55:46.047Z,99.90
2023-02-06T10:58:31.134Z,99.90
2023-02-06T11:00:59.717Z,99.90
2023-02-06T11:03:31.885Z,99.90
2023-02-06T11:06:01.618Z,99.90
2023-02-06T11:08:40.322Z,99.90
2023-02-06T11:11:22.941Z,99.90
2023-02-06T11:13:55.354Z,99.90
2023-02-06T11:16:26.191Z,99.90
2023-02-06T11:18:55.434Z,99.90
2023-02-06T11:21:46.724Z,99.90
2023-02-06T11:24:15.638Z,99.90
2023-02-06T11:26:54.809Z,99.90
2023-02-06T11:29:25.594Z,99.90
2023-02-06T11:31:58.550Z,99.90
2023-02-06T11:34:32.800Z,99.90
2023-02-06T11:37:05.933Z,99.90
2023-02-06T11:39:38.340Z,99.90
2023-02-06T11:42:18.217Z,99.90
2023-02-06T11:44:48.438Z,99.90
2023-02-06T11:47:33.501Z,99.90
2023-02-06T11:50:22.467Z,99.90
2023-02-06T11:52:49.554Z,99.90
2023-02-06T11:55:28.313Z,99.90
2023-02-06T11:58:22.588Z,99.90
2023-02-06T12:00:52.158Z,99.90
2023-02-06T12:03:50.530Z,99.90
2023-02-06T12:06:31.703Z,99.90
2023-02-06T12:09:01.324Z,99.90
2023-02-06T12:11:46.042Z,99.90
2023-02-06T12:14:21.741Z,99.90
2023-02-06T12:16:48.753Z,99.90
2023-02-06T12:19:26.483Z,99.90
2023-02-06T12:22:23.271Z,99.90
2023-02-06T12:24:53.584Z,99.90
2023-02-06T12:27:37.245Z,99.90
2023-02-06T12:30:29.570Z,99.90
2023-02-06T12:33:07.070Z,99.90
2023-02-06T12:35:44.750Z,99.90
2023-02-06T12:38:40.417Z,99.90
2023-02-06T12:41:17.112Z,99.90
2023-02-06T12:43:48.689Z,99.90
2023-02-06T12:46:17.983Z,99.90
2023-02-06T12:49:02.124Z,99.90
2023-02-06T12:51:51.623Z,99.90
2023-02-06T12:54:39.660Z,99.90
2023-02-06T12:57:26.821Z,99.90
2023-02-06T13:00:22.464Z,99.90
2023-02-06T13:03:27.021Z,99.90
2023-02-06T13:06:02.448Z,99.80
2023-02-06T13:08:38.214Z,99.80
2023-02-06T13:11:14.478Z,99.70
2023-02-06T13:13:42.075Z,99.90
2023-02-06T13:16:09.905Z,99.90
2023-02-06T13:18:52.553Z,99.80
2023-02-06T13:21:24.589Z,99.50
2023-02-06T13:24:03.598Z,99.30
2023-02-06T13:26:53.210Z,99.00
2023-02-06T13:29:27.811Z,99.50
2023-02-06T13:32:15.561Z,99.00
2023-02-06T13:34:45.049Z,99.00
2023-02-06T13:37:37.121Z,99.40
2023-02-06T13:40:26.424Z,99.00
2023-02-06T13:43:04.627Z,99.30
2023-02-06T13:45:42.498Z,99.20
2023-02-06T13:48:39.969Z,99.20
2023-02-06T13:51:31.329Z,98.70
2023-02-06T13:54:06.882Z,98.80
2023-02-06T13:56:43.571Z,98.70
2023-02-06T13:59:25.054Z,98.80
2023-02-06T14:01:52.661Z,98.50
2023-02-06T14:04:26.734Z,98.60
2023-02-06T14:07:29.825Z,98.20
2023-02-06T14:10:21.404Z,98.30
2023-02-06T14:13:24.672Z,98.40
2023-02-06T14:15:54.408Z,98.00
2023-02-06T14:18:54.724Z,98.40
2023-02-06T14:21:38.556Z,98.50
2023-02-06T14:24:31.349Z,98.30
2023-02-06T14:27:06.596Z,98.70
2023-02-06T14:30:03.358Z,98.60
2023-02-06T14:33:10.357Z,98.40
2023-02-06T14:35:54.476Z,98.40
2023-02-06T14:38:39.732Z,98.40
2023-02-06T14:41:06.746Z,98.50
2023-02-06T14:43:37.792Z,98.30
2023-02-06T14:46:09.647Z,98.30
2023-02-06T14:48:42.363Z,98.30
2023-02-06T14:51:21.519Z,98.20
2023-02-06T14:53:54.718Z,98.20
2023-02-06T14:56:33.103Z,98.20
2023-02-06T14:59:15.987Z,98.10
2023-02-06T15:01:45.295Z,98.10
2023-02-06T15:04:16.149Z,98.20
2023-02-06T15:06:50.346Z,97.90
2023-02-06T15:09:46.461Z,97.90
2023-02-06T15:12:23.685Z,97.80
2023-02-06T15:14:56.469Z,97.70
2023-02-06T15:17:26.363Z,97.60
2023-02-06T15:19:53.127Z,97.90
2023-02-06T15:22:29.053Z,97.90
2023-02-06T15:25:14.441Z,98.00
2023-02-06T15:27:41.144Z,98.00
2023-02-06T15:30:26.836Z,98.00
2023-02-06T15:32:56.627Z,98.20
2023-02-06T15:35:28.672Z,98.80
2023-02-06T15:37:56.649Z,98.70
2023-02-06T15:40:31.820Z,98.60
2023-02-06T15:42:59.679Z,98.80
2023-02-06T15:45:30.732Z,99.00
2023-02-06T15:48:01.642Z,98.90
2023-02-06T15:50:28.647Z,98.90
2023-02-06T15:52:56.249Z,98.90
2023-02-06T15:55:33.030Z,98.90
2023-02-06T15:58:01.935Z,99.00
2023-02-06T16:00:31.962Z,99.00
2023-02-06T16:03:06.113Z,99.00
2023-02-06T16:05:40.514Z,99.00
2023-02-06T16:08:20.126Z,98.90
2023-02-06T16:10:51.834Z,99.20
2023-02-06T16:13:23.529Z,98.90
2023-02-06T16:16:11.393Z,99.10
2023-02-06T16:18:39.927Z,99.10
2023-02-06T16:21:18.540Z,99.20
2023-02-06T16:23:52.575Z,99.30
2023-02-06T16:26:25.522Z,99.40
2023-02-06T16:29:10.193Z,99.30
2023-02-06T16:31:39.769Z,99.30
2023-02-06T16:34:38.868Z,99.40
2023-02-06T16:37:12.022Z,99.40
2023-02-06T16:39:42.225Z,99.40
2023-02-06T16:42:18.807Z,99.40
2023-02-06T16:44:52.968Z,99.30
2023-02-06T16:47:21.367Z,99.40
2023-02-06T16:49:48.287Z,99.30
2023-02-06T16:52:19.493Z,99.30
2023-02-06T16:54:46.816Z,99.40
2023-02-06T16:57:34.974Z,99.40
2023-02-06T17:00:05.450Z,99.80
2023-02-06T17:02:32.063Z,99.70
2023-02-06T17:04:58.667Z,99.70
2023-02-06T17:07:27.723Z,99.80
2023-02-06T17:09:56.664Z,99.90
2023-02-06T17:12:23.324Z,99.40
2023-02-06T17:14:50.099Z,99.80
2023-02-06T17:17:20.892Z,99.80
2023-02-06T17:19:48.341Z,99.70
2023-02-06T17:22:15.798Z,99.80
2023-02-06T17:24:42.947Z,99.80
2023-02-06T17:27:15.361Z,99.80
2023-02-06T17:29:41.992Z,99.80
2023-02-06T17:32:09.206Z,99.80
2023-02-06T17:34:37.370Z,99.90
2023-02-06T17:37:04.739Z,99.90
2023-02-06T17:39:31.350Z,99.90
2023-02-06T17:41:57.979Z,99.90
2023-02-06T17:44:24.600Z,99.90
2023-02-06T17:46:51.568Z,99.90
2023-02-06T17:49:18.212Z,99.80
2023-02-06T17:51:45.909Z,99.70
2023-02-06T17:54:12.946Z,99.80
2023-02-06T17:56:39.818Z,99.80
2023-02-06T17:59:06.441Z,99.80
2023-02-06T18:01:33.358Z,99.80
2023-02-06T18:04:00.929Z,99.90
2023-02-06T18:06:31.358Z,99.80
2023-02-06T18:08:57.943Z,99.90
2023-02-06T18:11:24.537Z,99.90
2023-02-06T18:13:51.253Z,99.90
2023-02-06T18:16:24.926Z,99.90
2023-02-06T18:18:51.851Z,99.90
2023-02-06T18:21:19.556Z,99.90
2023-02-06T18:23:48.000Z,99.90
2023-02-06T18:26:15.220Z,99.90
2023-02-06T18:28:41.870Z,99.90
2023-02-06T18:31:27.288Z,99.90
2023-02-06T18:33:55.295Z,99.90
2023-02-06T18:36:23.415Z,99.90
2023-02-06T18:38:50.240Z,99.90
2023-02-06T18:41:36.209Z,99.90
2023-02-06T18:44:07.694Z,99.90
2023-02-06T18:46:34.533Z,99.90
2023-02-06T18:49:01.459Z,99.90
2023-02-06T18:51:29.347Z,99.90
2023-02-06T18:53:57.699Z,99.90
2023-02-06T18:56:24.465Z,99.90
2023-02-06T18:58:51.110Z,99.90
2023-02-06T19:01:20.980Z,99.90
2023-02-06T19:03:48.773Z,99.70
2023-02-06T19:06:31.801Z,99.80
2023-02-06T19:08:59.447Z,99.80
2023-02-06T19:11:26.467Z,99.70
2023-02-06T19:13:53.270Z,99.90
2023-02-06T19:16:20.791Z,99.90
2023-02-06T19:18:48.702Z,99.90
2023-02-06T19:21:18.225Z,99.60
2023-02-06T19:23:46.468Z,99.80
2023-02-06T19:26:15.699Z,99.80
2023-02-06T19:28:43.126Z,99.90
2023-02-06T19:31:10.917Z,99.60
2023-02-06T19:33:39.260Z,99.60
2023-02-06T19:36:12.227Z,99.80
2023-02-06T19:38:39.240Z,99.80
2023-02-06T19:41:11.523Z,99.90
2023-02-06T19:43:38.827Z,99.80
2023-02-06T19:46:08.308Z,99.70
2023-02-06T19:48:35.253Z,99.60
2023-02-06T19:51:06.927Z,99.60
2023-02-06T19:53:34.224Z,99.60
2023-02-06T19:56:01.636Z,99.60
2023-02-06T19:58:30.897Z,99.80
2023-02-06T20:00:59.032Z,99.50
2023-02-06T20:03:25.945Z,99.50
2023-02-06T20:05:52.595Z,99.50
2023-02-06T20:08:19.252Z,99.80
2023-02-06T20:10:45.920Z,99.70
2023-02-06T20:13:12.634Z,99.60
2023-02-06T20:15:39.249Z,99.80
2023-02-06T20:18:06.167Z,99.70
2023-02-06T20:20:36.356Z,99.70
2023-02-06T20:23:03.518Z,99.80
2023-02-06T20:25:30.302Z,99.80
2023-02-06T20:27:56.958Z,99.70
2023-02-06T20:30:24.215Z,99.50
2023-02-06T20:32:50.906Z,99.30
2023-02-06T20:35:17.566Z,99.30
2023-02-06T20:37:44.161Z,99.50
2023-02-06T20:40:11.038Z,99.50
2023-02-06T20:42:42.062Z,99.50
2023-02-06T20:45:08.729Z,99.50
2023-02-06T20:47:35.368Z,99.40
2023-02-06T20:50:02.019Z,99.50
2023-02-06T20:52:29.546Z,99.70
2023-02-06T20:54:56.155Z,99.60
2023-02-06T20:57:22.973Z,99.60
2023-02-06T20:59:49.570Z,99.50
2023-02-06T21:02:16.430Z,99.40
2023-02-06T21:04:43.110Z,99.60
2023-02-06T21:07:09.759Z,99.50
2023-02-06T21:09:36.465Z,99.50
2023-02-06T21:12:03.511Z,99.40
2023-02-06T21:14:30.137Z,99.40
2023-02-06T21:16:57.646Z,99.40
2023-02-06T21:19:26.624Z,99.50
2023-02-06T21:21:53.242Z,99.30
2023-02-06T21:24:20.006Z,99.50
2023-02-06T21:26:47.170Z,99.70
2023-02-06T21:29:14.860Z,99.50
2023-02-06T21:31:42.187Z,99.40
2023-02-06T21:34:16.138Z,99.40
2023-02-06T21:36:43.386Z,99.30
2023-02-06T21:39:14.212Z,99.50
2023-02-06T21:41:40.867Z,99.30
2023-02-06T21:44:07.537Z,99.30
2023-02-06T21:46:34.399Z,99.30
2023-02-06T21:49:01.191Z,99.60
2023-02-06T21:51:28.196Z,99.60
2023-02-06T21:53:56.331Z,99.60
2023-02-06T21:56:25.990Z,99.60
2023-02-06T21:58:53.135Z,99.90
2023-02-06T22:01:26.064Z,99.60
2023-02-06T22:03:53.492Z,99.70
2023-02-06T22:06:20.711Z,99.70
2023-02-06T22:08:51.771Z,99.60
2023-02-06T22:11:24.328Z,99.60
2023-02-06T22:13:51.890Z,99.50
2023-02-06T22:16:22.011Z,99.50
2023-02-06T22:18:48.940Z,99.40
2023-02-06T22:21:18.140Z,99.50
2023-02-06T22:23:46.409Z,99.60
2023-02-06T22:26:14.957Z,99.70
2023-02-06T22:28:41.919Z,99.40
2023-02-06T22:31:15.000Z,99.60
2023-02-06T22:33:41.969Z,99.40
2023-02-06T22:36:11.979Z,99.40
2023-02-06T22:38:39.343Z,99.40
2023-02-06T22:41:08.881Z,99.50
2023-02-06T22:43:37.302Z,99.50
2023-02-06T22:46:05.292Z,99.50
2023-02-06T22:48:32.746Z,99.50
2023-02-06T22:51:07.474Z,99.50
2023-02-06T22:53:34.204Z,99.60
2023-02-06T22:56:20.506Z,99.60
2023-02-06T22:58:48.333Z,99.40
2023-02-06T23:01:17.336Z,99.50
2023-02-06T23:03:44.260Z,99.50
2023-02-06T23:06:15.572Z,99.40
2023-02-06T23:08:45.753Z,99.30
2023-02-06T23:11:13.480Z,99.40
2023-02-06T23:13:41.170Z,99.30
2023-02-06T23:16:08.958Z,99.40
2023-02-06T23:18:36.177Z,99.30
2023-02-06T23:21:06.424Z,99.40
2023-02-06T23:23:34.819Z,99.50
2023-02-06T23:26:01.543Z,99.30
2023-02-06T23:28:28.707Z,99.20
2023-02-06T23:30:55.425Z,99.30
2023-02-06T23:33:23.228Z,99.20
2023-02-06T23:35:50.326Z,99.30
2023-02-06T23:38:18.243Z,99.30
2023-02-06T23:40:45.588Z,99.10
2023-02-06T23:43:12.204Z,99.30
2023-02-06T23:45:40.375Z,99.20
2023-02-06T23:48:07.251Z,99.10
2023-02-06T23:50:33.890Z,99.30
2023-02-06T23:53:00.518Z,99.20
2023-02-06T23:55:28.332Z,99.40
2023-02-06T23:57:55.002Z,99.30
